createdAt,value
2023-04-20T00:00:40.483Z,6.25
2023-04-20T00:03:08.689Z,3.72
2023-04-20T00:05:37.866Z,5.93
2023-04-20T00:08:06.098Z,5.80
2023-04-20T00:10:33.922Z,5.65
2023-04-20T00:13:01.710Z,6.40
2023-04-20T00:15:30.102Z,5.82
2023-04-20T00:17:57.872Z,6.82
2023-04-20T00:20:25.885Z,9.93
2023-04-20T00:22:54.977Z,6.00
2023-04-20T00:25:22.680Z,6.13
2023-04-20T00:27:50.420Z,5.78
2023-04-20T00:30:18.192Z,5.47
2023-04-20T00:32:46.178Z,5.50
2023-04-20T00:35:14.858Z,5.32
2023-04-20T00:37:42.601Z,9.70
2023-04-20T00:40:12.576Z,5.45
2023-04-20T00:42:40.932Z,9.90
2023-04-20T00:45:09.726Z,6.72
2023-04-20T00:47:38.457Z,8.75
2023-04-20T00:50:07.715Z,8.13
2023-04-20T00:52:35.638Z,4.57
2023-04-20T00:55:04.637Z,6.85
2023-04-20T00:57:33.939Z,7.50
2023-04-20T01:00:02.539Z,7.50
2023-04-20T01:02:30.489Z,8.25
2023-04-20T01:04:58.440Z,6.80
2023-04-20T01:07:26.270Z,8.50
2023-04-20T01:09:54.122Z,7.65
2023-04-20T01:12:21.955Z,15.45
2023-04-20T01:14:51.154Z,9.00
2023-04-20T01:17:20.238Z,7.30
2023-04-20T01:19:49.178Z,7.60
2023-04-20T01:22:19.884Z,14.07
2023-04-20T01:24:48.174Z,5.82
2023-04-20T01:27:17.106Z,6.40
2023-04-20T01:29:45.798Z,8.18
2023-04-20T01:32:13.986Z,8.30
2023-04-20T01:34:41.824Z,7.00
2023-04-20T01:37:09.891Z,8.77
2023-04-20T01:39:41.866Z,9.50
2023-04-20T01:42:09.725Z,7.97
2023-04-20T01:44:37.446Z,5.45
2023-04-20T01:47:05.396Z,9.60
2023-04-20T01:49:33.658Z,7.63
2023-04-20T01:52:01.389Z,7.85
2023-04-20T01:54:29.137Z,5.47
2023-04-20T01:56:58.636Z,6.85
2023-04-20T02:03:13.014Z,4.97
2023-04-20T02:05:40.964Z,7.20
2023-04-20T02:08:08.774Z,9.32
2023-04-20T02:10:36.590Z,6.07
2023-04-20T02:13:05.667Z,6.95
2023-04-20T02:15:33.493Z,8.35
2023-04-20T02:18:01.381Z,5.90
2023-04-20T02:20:29.236Z,6.07
2023-04-20T02:22:57.245Z,6.60
2023-04-20T02:25:25.039Z,5.63
2023-04-20T02:27:52.855Z,4.50
2023-04-20T02:30:22.448Z,5.78
2023-04-20T02:32:50.230Z,4.65
2023-04-20T02:35:18.066Z,9.55
2023-04-20T02:37:47.897Z,8.93
2023-04-20T02:40:15.853Z,9.45
2023-04-20T02:42:43.718Z,8.13
2023-04-20T02:45:13.021Z,6.78
2023-04-20T02:47:44.974Z,5.30
2023-04-20T02:50:14.080Z,5.72
2023-04-20T02:53:00.606Z,6.35
2023-04-20T02:55:29.103Z,7.78
2023-04-20T02:58:00.976Z,8.02
2023-04-20T03:00:47.489Z,6.55
2023-04-20T03:03:17.708Z,5.68
2023-04-20T03:05:45.781Z,7.53
2023-04-20T03:08:13.867Z,5.35
2023-04-20T03:10:46.089Z,8.40
2023-04-20T03:13:19.790Z,6.50
2023-04-20T03:18:33.527Z,7.30
2023-04-20T03:21:01.646Z,7.22
2023-04-20T03:23:31.801Z,7.35
2023-04-20T03:26:02.247Z,6.90
2023-04-20T03:29:02.295Z,7.32
2023-04-20T03:31:30.661Z,6.22
2023-04-20T03:34:00.502Z,7.25
2023-04-20T03:36:29.223Z,7.32
2023-04-20T03:38:58.166Z,6.10
2023-04-20T03:41:25.955Z,6.93
2023-04-20T03:43:53.756Z,8.15
2023-04-20T03:46:23.234Z,7.38
2023-04-20T03:48:51.319Z,6.50
2023-04-20T03:51:20.496Z,10.60
2023-04-20T03:53:48.213Z,6.68
2023-04-20T03:56:15.977Z,7.00
2023-04-20T03:58:44.328Z,6.60
2023-04-20T04:01:15.751Z,9.75
2023-04-20T04:03:47.958Z,10.23
2023-04-20T04:06:16.010Z,8.85
2023-04-20T04:08:45.293Z,6.38
2023-04-20T04:11:13.045Z,6.18
2023-04-20T04:13:40.769Z,8.48
2023-04-20T04:16:10.099Z,5.65
2023-04-20T04:18:38.593Z,9.57
2023-04-20T04:21:11.195Z,7.75
2023-04-20T04:23:42.399Z,8.13
2023-04-20T04:26:21.444Z,8.77
2023-04-20T04:28:49.430Z,8.02
2023-04-20T04:31:21.541Z,10.45
2023-04-20T04:33:49.692Z,10.63
2023-04-20T04:36:29.094Z,8.05
2023-04-20T04:38:59.180Z,6.68
2023-04-20T04:41:29.205Z,7.07
2023-04-20T04:44:07.244Z,8.48
2023-04-20T04:46:36.717Z,11.20
2023-04-20T04:49:05.845Z,10.15
2023-04-20T04:51:33.590Z,10.82
2023-04-20T04:54:01.257Z,10.45
2023-04-20T04:56:30.348Z,11.40
2023-04-20T04:58:58.048Z,10.63
2023-04-20T05:01:25.805Z,10.38
2023-04-20T05:03:53.608Z,12.07
2023-04-20T05:06:21.650Z,10.52
2023-04-20T05:08:49.406Z,13.07
2023-04-20T05:11:17.099Z,8.60
2023-04-20T05:13:46.284Z,10.75
2023-04-20T05:16:14.006Z,11.57
2023-04-20T05:18:41.788Z,10.48
2023-04-20T05:21:09.507Z,11.63
2023-04-20T05:23:37.264Z,9.57
2023-04-20T05:26:05.016Z,12.98
2023-04-20T05:28:34.230Z,10.90
2023-04-20T05:31:03.285Z,11.07
2023-04-20T05:33:31.392Z,15.88
2023-04-20T05:35:59.207Z,12.70
2023-04-20T05:38:27.098Z,12.68
2023-04-20T05:40:54.863Z,11.98
2023-04-20T05:43:22.550Z,12.55
2023-04-20T05:45:50.435Z,12.98
2023-04-20T05:48:19.504Z,10.88
2023-04-20T05:50:48.021Z,12.95
2023-04-20T05:53:16.096Z,13.07
2023-04-20T05:55:43.754Z,12.80
2023-04-20T05:58:11.815Z,10.85
2023-04-20T06:00:39.613Z,12.52
2023-04-20T06:03:07.821Z,14.82
2023-04-20T06:05:37.069Z,16.25
2023-04-20T06:08:05.118Z,14.65
2023-04-20T06:10:34.301Z,10.32
2023-04-20T06:13:02.350Z,9.27
2023-04-20T06:15:30.336Z,10.23
2023-04-20T06:17:58.288Z,13.35
2023-04-20T06:20:26.545Z,11.95
2023-04-20T06:22:55.896Z,11.77
2023-04-20T06:25:23.685Z,10.93
2023-04-20T06:27:52.824Z,14.80
2023-04-20T06:30:20.997Z,14.40
2023-04-20T06:32:48.748Z,13.55
2023-04-20T06:35:16.524Z,13.10
2023-04-20T06:37:44.282Z,14.82
2023-04-20T06:40:16.016Z,15.25
2023-04-20T06:42:44.115Z,12.55
2023-04-20T06:45:12.667Z,13.48
2023-04-20T06:47:40.555Z,13.07
2023-04-20T06:50:09.589Z,12.65
2023-04-20T06:52:37.992Z,9.50
2023-04-20T06:55:06.516Z,12.70
2023-04-20T06:57:37.197Z,13.20
2023-04-20T07:00:06.140Z,12.18
2023-04-20T07:02:43.474Z,16.63
2023-04-20T07:05:12.115Z,12.68
2023-04-20T07:07:40.306Z,11.25
2023-04-20T07:10:09.107Z,14.38
2023-04-20T07:12:40.941Z,12.38
2023-04-20T07:15:11.105Z,12.85
2023-04-20T07:17:39.018Z,12.05
2023-04-20T07:20:08.485Z,13.85
2023-04-20T07:22:36.271Z,11.73
2023-04-20T07:25:05.310Z,11.27
2023-04-20T07:27:36.413Z,10.68
2023-04-20T07:30:06.911Z,15.43
2023-04-20T07:32:35.099Z,12.32
2023-04-20T07:35:03.353Z,11.65
2023-04-20T07:37:31.644Z,12.85
2023-04-20T07:39:59.421Z,13.35
2023-04-20T07:42:27.202Z,12.98
2023-04-20T07:44:55.619Z,13.73
2023-04-20T07:47:24.718Z,12.50
2023-04-20T07:49:52.680Z,14.85
2023-04-20T07:52:20.490Z,14.77
2023-04-20T07:54:48.245Z,12.32
2023-04-20T07:57:16.665Z,10.88
2023-04-20T07:59:46.730Z,11.73
2023-04-20T08:02:14.615Z,11.65
2023-04-20T08:04:44.454Z,9.18
2023-04-20T08:07:12.333Z,14.65
2023-04-20T08:09:40.033Z,9.60
2023-04-20T08:12:08.137Z,10.70
2023-04-20T08:14:35.852Z,6.78
2023-04-20T08:17:03.627Z,10.98
2023-04-20T08:19:31.390Z,8.65
2023-04-20T08:22:01.489Z,9.10
2023-04-20T08:24:30.060Z,9.50
2023-04-20T08:26:59.065Z,9.68
2023-04-20T08:29:26.830Z,8.75
2023-04-20T08:31:54.681Z,10.68
2023-04-20T08:34:22.604Z,9.27
2023-04-20T08:36:50.875Z,8.35
2023-04-20T08:39:24.182Z,11.10
2023-04-20T08:41:53.860Z,7.47
2023-04-20T08:44:21.776Z,9.40
2023-04-20T08:46:50.337Z,11.60
2023-04-20T08:49:19.358Z,9.23
2023-04-20T08:51:48.638Z,8.68
2023-04-20T08:54:17.025Z,9.05
2023-04-20T08:56:47.953Z,7.63
2023-04-20T08:59:16.874Z,8.68
2023-04-20T09:01:45.323Z,8.35
2023-04-20T09:04:18.401Z,7.80
2023-04-20T09:06:47.083Z,6.50
2023-04-20T09:09:14.812Z,9.15
2023-04-20T09:11:42.719Z,8.20
2023-04-20T09:14:12.834Z,7.78
2023-04-20T09:16:50.929Z,7.45
2023-04-20T09:19:22.957Z,7.75
2023-04-20T09:21:52.050Z,7.43
2023-04-20T09:24:20.868Z,6.32
2023-04-20T09:26:48.920Z,8.20
2023-04-20T09:29:19.570Z,8.43
2023-04-20T09:31:48.300Z,7.80
2023-04-20T09:34:16.447Z,6.97
2023-04-20T09:36:46.415Z,8.82
2023-04-20T09:39:16.467Z,6.13
2023-04-20T09:41:44.953Z,6.63
2023-04-20T09:44:13.781Z,8.00
2023-04-20T09:46:43.853Z,7.03
2023-04-20T09:49:13.490Z,6.25
2023-04-20T09:51:45.021Z,8.32
2023-04-20T09:54:13.487Z,6.63
2023-04-20T09:56:41.371Z,6.60
2023-04-20T09:59:09.610Z,8.68
2023-04-20T10:01:38.389Z,5.93
2023-04-20T10:04:11.169Z,6.88
2023-04-20T10:06:39.429Z,6.32
2023-04-20T10:09:08.820Z,6.15
2023-04-20T10:11:51.626Z,5.75
2023-04-20T10:14:23.253Z,5.10
2023-04-20T10:17:01.393Z,10.10
2023-04-20T10:19:40.136Z,7.57
2023-04-20T10:22:09.305Z,7.40
2023-04-20T10:24:38.233Z,6.00
2023-04-20T10:27:16.811Z,5.10
2023-04-20T10:29:44.749Z,5.10
2023-04-20T10:32:22.979Z,5.50
2023-04-20T10:35:02.436Z,5.80
2023-04-20T10:37:31.970Z,5.60
2023-04-20T10:40:00.188Z,5.28
2023-04-20T10:42:29.565Z,5.53
2023-04-20T10:44:57.703Z,5.40
2023-04-20T10:47:29.816Z,5.25
2023-04-20T10:50:09.315Z,4.95
2023-04-20T10:52:38.004Z,5.47
2023-04-20T10:55:08.336Z,4.75
2023-04-20T10:57:37.374Z,6.63
2023-04-20T11:00:16.475Z,5.20
2023-04-20T11:02:51.986Z,6.00
2023-04-20T11:05:23.614Z,6.28
2023-04-20T11:07:54.566Z,6.05
2023-04-20T11:10:23.844Z,5.90
2023-04-20T11:12:52.070Z,5.75
2023-04-20T11:15:19.891Z,5.78
2023-04-20T11:17:47.661Z,6.65
2023-04-20T11:20:17.560Z,7.60
2023-04-20T11:22:57.886Z,7.00
2023-04-20T11:25:25.770Z,5.78
2023-04-20T11:27:53.495Z,5.38
2023-04-20T11:30:21.268Z,5.93
2023-04-20T11:32:55.847Z,5.55
2023-04-20T11:35:23.847Z,6.25
2023-04-20T11:37:53.729Z,6.25
2023-04-20T11:40:21.917Z,5.72
2023-04-20T11:42:49.634Z,6.35
2023-04-20T11:45:17.829Z,7.43
2023-04-20T11:47:45.873Z,6.97
2023-04-20T11:50:14.299Z,6.82
2023-04-20T11:52:42.216Z,6.50
2023-04-20T11:55:11.570Z,5.65
2023-04-20T11:57:39.330Z,5.60
2023-04-20T12:00:08.891Z,5.32
2023-04-20T12:02:42.608Z,5.93
2023-04-20T12:05:11.190Z,7.50
2023-04-20T12:07:39.447Z,5.63
2023-04-20T12:10:08.742Z,5.30
2023-04-20T12:12:38.647Z,5.25
2023-04-20T12:15:07.602Z,5.65
2023-04-20T12:17:35.411Z,6.10
2023-04-20T12:20:05.080Z,6.85
2023-04-20T12:22:32.798Z,5.80
2023-04-20T12:25:00.490Z,8.52
2023-04-20T12:27:28.765Z,5.65
2023-04-20T12:29:57.977Z,5.82
2023-04-20T12:32:25.700Z,6.88
2023-04-20T12:34:53.750Z,5.07
2023-04-20T12:37:21.445Z,8.30
2023-04-20T12:39:49.130Z,4.88
2023-04-20T12:42:16.963Z,4.88
2023-04-20T12:44:44.695Z,5.20
2023-04-20T12:47:14.461Z,5.05
2023-04-20T12:49:42.189Z,5.63
2023-04-20T12:52:09.937Z,4.80
2023-04-20T12:54:37.627Z,4.60
2023-04-20T12:57:05.613Z,5.07
2023-04-20T12:59:33.374Z,5.85
2023-04-20T13:02:01.130Z,6.38
2023-04-20T13:04:30.324Z,6.85
2023-04-20T13:06:58.376Z,5.50
2023-04-20T13:09:27.082Z,6.13
2023-04-20T13:11:54.926Z,6.45
2023-04-20T13:14:22.807Z,4.93
2023-04-20T13:16:52.904Z,5.35
2023-04-20T13:19:22.395Z,5.07
2023-04-20T13:21:51.572Z,6.93
2023-04-20T13:24:19.440Z,5.95
2023-04-20T13:26:47.273Z,5.53
2023-04-20T13:29:14.999Z,5.53
2023-04-20T13:31:42.728Z,6.32
2023-04-20T13:34:10.476Z,4.55
2023-04-20T13:36:38.207Z,4.55
2023-04-20T13:39:07.385Z,4.07
2023-04-20T13:41:35.131Z,4.28
2023-04-20T13:44:03.106Z,5.00
2023-04-20T13:46:31.630Z,4.90
2023-04-20T13:48:59.627Z,4.07
2023-04-20T13:51:28.100Z,4.05
2023-04-20T13:53:55.805Z,7.93
2023-04-20T13:56:24.942Z,3.97
2023-04-20T13:58:52.739Z,5.32
2023-04-20T14:01:20.500Z,7.30
2023-04-20T14:03:48.387Z,4.53
2023-04-20T14:06:16.190Z,4.43
2023-04-20T14:08:44.043Z,4.63
2023-04-20T14:11:19.746Z,4.53
2023-04-20T14:13:47.590Z,3.70
2023-04-20T14:16:15.546Z,3.58
2023-04-20T14:18:43.390Z,6.88
2023-04-20T14:21:11.120Z,5.05
2023-04-20T14:23:38.832Z,4.57
2023-04-20T14:26:07.278Z,4.97
2023-04-20T14:28:36.532Z,4.90
2023-04-20T14:31:04.446Z,4.97
2023-04-20T14:33:32.307Z,4.30
2023-04-20T14:35:59.996Z,3.90
2023-04-20T14:38:27.798Z,5.47
2023-04-20T14:40:55.511Z,4.28
2023-04-20T14:43:23.889Z,3.72
2023-04-20T14:45:53.034Z,4.22
2023-04-20T14:48:20.745Z,6.20
2023-04-20T14:50:48.459Z,6.75
2023-04-20T14:53:16.354Z,7.20
2023-04-20T14:55:44.033Z,5.43
2023-04-20T14:58:11.859Z,4.82
2023-04-20T15:00:39.858Z,5.20
2023-04-20T15:03:09.234Z,4.55
2023-04-20T15:05:37.437Z,5.28
2023-04-20T15:08:05.731Z,6.32
2023-04-20T15:10:34.074Z,6.47
2023-04-20T15:13:02.532Z,5.90
2023-04-20T15:15:46.938Z,5.97
2023-04-20T15:18:17.152Z,5.63
2023-04-20T15:20:45.147Z,5.95
2023-04-20T15:23:12.900Z,4.80
2023-04-20T15:25:40.757Z,6.47
2023-04-20T15:28:08.563Z,6.53
2023-04-20T15:30:36.326Z,5.90
2023-04-20T15:33:04.744Z,8.57
2023-04-20T15:35:35.762Z,8.50
2023-04-20T15:38:03.984Z,7.47
2023-04-20T15:40:31.790Z,7.95
2023-04-20T15:42:59.616Z,8.75
2023-04-20T15:45:27.410Z,8.25
2023-04-20T15:47:55.843Z,8.80
2023-04-20T15:50:23.905Z,9.02
2023-04-20T15:52:55.132Z,8.68
2023-04-20T15:55:22.953Z,10.25
2023-04-20T15:57:56.785Z,11.63
2023-04-20T16:00:24.621Z,9.73
2023-04-20T16:02:53.599Z,10.18
2023-04-20T16:05:21.667Z,11.13
2023-04-20T16:07:49.465Z,9.25
2023-04-20T16:10:18.584Z,8.57
2023-04-20T16:12:46.369Z,8.73
2023-04-20T16:15:14.194Z,11.27
2023-04-20T16:17:41.898Z,8.20
2023-04-20T16:20:10.515Z,10.05
2023-04-20T16:22:38.423Z,9.82
2023-04-20T16:25:07.112Z,10.32
2023-04-20T16:27:36.498Z,10.73
2023-04-20T16:30:04.646Z,12.60
2023-04-20T16:32:32.382Z,9.10
2023-04-20T16:35:00.267Z,8.75
2023-04-20T16:37:28.008Z,10.23
2023-04-20T16:39:55.675Z,12.43
2023-04-20T16:42:23.374Z,9.95
2023-04-20T16:44:52.570Z,10.32
2023-04-20T16:47:20.276Z,9.65
2023-04-20T16:49:48.237Z,13.57
2023-04-20T16:52:16.033Z,10.25
2023-04-20T16:54:43.737Z,10.35
2023-04-20T16:57:11.471Z,10.05
2023-04-20T16:59:39.231Z,10.40
2023-04-20T17:02:08.751Z,11.73
2023-04-20T17:04:36.804Z,9.68
2023-04-20T17:07:04.510Z,8.95
2023-04-20T17:09:32.230Z,9.40
2023-04-20T17:12:01.317Z,9.52
2023-04-20T17:14:30.174Z,7.50
2023-04-20T17:16:57.964Z,10.27
2023-04-20T17:19:27.117Z,11.00
2023-04-20T17:21:54.872Z,10.88
2023-04-20T17:24:22.586Z,9.75
2023-04-20T17:26:50.364Z,8.70
2023-04-20T17:29:18.182Z,11.05
2023-04-20T17:31:46.684Z,13.55
2023-04-20T17:34:14.517Z,11.38
2023-04-20T17:36:43.536Z,12.40
2023-04-20T17:39:11.265Z,13.90
2023-04-20T17:41:38.997Z,14.23
2023-04-20T17:44:06.715Z,11.35
2023-04-20T17:46:34.506Z,12.60
2023-04-20T17:49:02.256Z,10.63
2023-04-20T17:51:29.950Z,13.45
2023-04-20T17:53:59.012Z,14.05
2023-04-20T17:56:27.143Z,12.38
2023-04-20T17:58:55.178Z,12.20
2023-04-20T18:01:22.939Z,12.38
2023-04-20T18:03:50.922Z,13.73
2023-04-20T18:06:18.700Z,13.88
2023-04-20T18:08:46.924Z,14.38
2023-04-20T18:12:18.413Z,15.73
2023-04-20T18:14:46.363Z,13.80
2023-04-20T18:17:14.087Z,13.77
2023-04-20T18:19:42.208Z,13.13
2023-04-20T18:22:10.243Z,21.98
2023-04-20T18:24:38.020Z,15.48
2023-04-20T18:27:05.744Z,15.15
2023-04-20T18:29:35.254Z,16.00
2023-04-20T18:32:03.260Z,16.63
2023-04-20T18:34:32.062Z,14.13
2023-04-20T18:37:00.182Z,13.82
2023-04-20T18:39:28.033Z,14.43
2023-04-20T18:41:55.860Z,13.25
2023-04-20T18:44:23.759Z,16.13
2023-04-20T18:46:52.918Z,15.75
2023-04-20T18:49:20.906Z,16.13
2023-04-20T18:51:48.652Z,19.88
2023-04-20T18:54:16.793Z,18.52
2023-04-20T18:56:44.917Z,22.30
2023-04-20T18:59:12.690Z,16.00
2023-04-20T19:01:41.831Z,22.90
2023-04-20T19:04:11.407Z,18.80
2023-04-20T19:06:40.085Z,21.77
2023-04-20T19:09:08.343Z,21.30
2023-04-20T19:11:36.325Z,21.73
2023-04-20T19:14:04.222Z,20.17
2023-04-20T19:16:34.710Z,22.48
2023-04-20T19:19:03.707Z,22.35
2023-04-20T19:21:33.141Z,22.70
2023-04-20T19:24:00.865Z,25.50
2023-04-20T19:26:28.612Z,22.58
2023-04-20T19:28:58.126Z,20.70
2023-04-20T19:31:26.355Z,22.45
2023-04-20T19:33:56.539Z,25.85
2023-04-20T19:36:24.978Z,22.33
2023-04-20T19:38:54.090Z,24.42
2023-04-20T19:41:22.163Z,25.65
2023-04-20T19:43:49.908Z,21.95
2023-04-20T19:46:18.267Z,22.38
2023-04-20T19:48:46.260Z,23.25
2023-04-20T19:51:13.989Z,22.17
2023-04-20T19:53:41.822Z,26.33
2023-04-20T19:56:10.891Z,23.65
2023-04-20T19:58:38.801Z,28.05
2023-04-20T20:01:06.601Z,26.42
2023-04-20T20:03:34.479Z,28.90
2023-04-20T20:06:03.074Z,24.70
2023-04-20T20:08:31.189Z,25.88
2023-04-20T20:10:58.908Z,22.55
2023-04-20T20:13:28.296Z,33.65
2023-04-20T20:15:56.858Z,81.82
2023-04-20T20:18:24.609Z,36.83
2023-04-20T20:20:52.665Z,29.25
2023-04-20T20:23:20.375Z,24.05
2023-04-20T20:25:48.109Z,26.48
2023-04-20T20:28:15.872Z,26.88
2023-04-20T20:30:45.385Z,25.38
2023-04-20T20:33:13.232Z,23.50
2023-04-20T20:35:42.900Z,21.60
2023-04-20T20:38:10.904Z,25.98
2023-04-20T20:40:40.764Z,23.55
2023-04-20T20:43:08.650Z,18.58
2023-04-20T20:45:37.160Z,21.55
2023-04-20T20:48:06.567Z,21.92
2023-04-20T20:50:34.503Z,24.85
2023-04-20T20:53:02.223Z,24.70
2023-04-20T20:55:29.982Z,24.10
2023-04-20T20:57:57.737Z,22.80
2023-04-20T21:00:25.492Z,23.48
2023-04-20T21:02:53.416Z,21.65
2023-04-20T21:05:22.946Z,21.83
2023-04-20T21:07:51.809Z,27.15
2023-04-20T21:10:19.590Z,25.60
2023-04-20T21:12:47.411Z,29.77
2023-04-20T21:15:15.155Z,26.17
2023-04-20T21:17:43.108Z,22.75
2023-04-20T21:20:12.113Z,24.45
2023-04-20T21:22:41.340Z,22.95
2023-04-20T21:25:09.473Z,23.85
2023-04-20T21:27:37.260Z,26.92
2023-04-20T21:30:05.754Z,27.88
2023-04-20T21:32:33.478Z,31.42
2023-04-20T21:35:01.183Z,27.42
2023-04-20T21:37:29.004Z,27.02
2023-04-20T21:39:58.019Z,27.35
2023-04-20T21:42:25.905Z,29.42
2023-04-20T21:44:53.743Z,32.97
2023-04-20T21:47:21.615Z,32.17
2023-04-20T21:49:49.390Z,26.73
2023-04-20T21:52:17.127Z,30.27
2023-04-20T21:54:45.177Z,28.25
2023-04-20T21:57:14.433Z,34.63
2023-04-20T21:59:42.215Z,31.33
2023-04-20T22:02:10.154Z,31.40
2023-04-20T22:04:38.019Z,30.05
2023-04-20T22:07:05.836Z,29.33
2023-04-20T22:09:33.598Z,29.33
2023-04-20T22:12:02.045Z,32.03
2023-04-20T22:14:31.379Z,29.90
2023-04-20T22:16:59.428Z,27.65
2023-04-20T22:19:27.681Z,31.65
2023-04-20T22:21:55.425Z,26.40
2023-04-20T22:24:23.162Z,27.60
2023-04-20T22:26:50.872Z,30.35
2023-04-20T22:29:18.982Z,34.42
2023-04-20T22:31:48.394Z,31.60
2023-04-20T22:34:16.324Z,37.95
2023-04-20T22:36:44.057Z,33.95
2023-04-20T22:39:11.953Z,31.42
2023-04-20T22:41:39.909Z,35.83
2023-04-20T22:44:07.650Z,33.72
2023-04-20T22:46:35.470Z,31.90
2023-04-20T22:49:05.402Z,33.30
2023-04-20T22:51:33.365Z,33.25
2023-04-20T22:54:02.502Z,29.80
2023-04-20T22:56:30.315Z,29.95
2023-04-20T22:58:58.078Z,40.22
2023-04-20T23:01:25.883Z,29.38
2023-04-20T23:03:53.699Z,29.17
2023-04-20T23:06:23.137Z,32.13
2023-04-20T23:08:51.328Z,27.50
2023-04-20T23:11:20.728Z,33.25
2023-04-20T23:13:48.462Z,31.92
2023-04-20T23:16:16.503Z,31.75
2023-04-20T23:18:44.202Z,30.35
2023-04-20T23:21:11.911Z,29.35
2023-04-20T23:23:41.001Z,30.70
2023-04-20T23:26:09.058Z,31.95
2023-04-20T23:28:36.838Z,31.92
2023-04-20T23:31:04.601Z,31.35
2023-04-20T23:33:32.450Z,31.88
2023-04-20T23:36:00.235Z,32.13
2023-04-20T23:38:27.974Z,31.63
2023-04-20T23:40:57.043Z,32.75
2023-04-20T23:43:24.870Z,32.92
2023-04-20T23:45:52.619Z,38.03
2023-04-20T23:48:20.341Z,35.63
2023-04-20T23:50:49.902Z,36.58
2023-04-20T23:53:17.757Z,33.17
2023-04-20T23:55:48.222Z,29.90
2023-04-20T23:58:17.424Z,32.03
